sensor_id;sensor_type;location;lat;lon;timestamp;P1;durP1;ratioP1;P2;durP2;ratioP2
6693;SDS011;3384;42.628;23.380;2023-11-19T00:00:06;2.63;;;2.53;;
6693;SDS011;3384;42.628;23.380;2023-11-19T00:02:36;2.60;;;2.60;;
6693;SDS011;3384;42.628;23.380;2023-11-19T00:05:04;3.27;;;3.17;;
6693;SDS011;3384;42.628;23.380;2023-11-19T00:07:34;3.13;;;3.03;;
6693;SDS011;3384;42.628;23.380;2023-11-19T00:10:01;2.93;;;2.83;;
6693;SDS011;3384;42.628;23.380;2023-11-19T00:12:35;2.83;;;2.83;;
6693;SDS011;3384;42.628;23.380;2023-11-19T00:15:05;2.77;;;2.77;;
6693;SDS011;3384;42.628;23.380;2023-11-19T00:17:36;2.60;;;2.60;;
6693;SDS011;3384;42.628;23.380;2023-11-19T00:20:04;2.63;;;2.63;;
6693;SDS011;3384;42.628;23.380;2023-11-19T00:22:32;2.00;;;2.00;;
6693;SDS011;3384;42.628;23.380;2023-11-19T00:24:59;2.50;;;2.50;;
6693;SDS011;3384;42.628;23.380;2023-11-19T00:27:27;3.60;;;3.50;;
6693;SDS011;3384;42.628;23.380;2023-11-19T00:29:54;3.17;;;3.07;;
6693;SDS011;3384;42.628;23.380;2023-11-19T00:32:22;2.53;;;2.53;;
6693;SDS011;3384;42.628;23.380;2023-11-19T00:34:49;2.47;;;2.47;;
6693;SDS011;3384;42.628;23.380;2023-11-19T00:37:16;2.77;;;2.57;;
6693;SDS011;3384;42.628;23.380;2023-11-19T00:39:43;4.40;;;4.20;;
6693;SDS011;3384;42.628;23.380;2023-11-19T00:42:11;2.60;;;2.60;;
6693;SDS011;3384;42.628;23.380;2023-11-19T00:44:38;3.10;;;3.00;;
6693;SDS011;3384;42.628;23.380;2023-11-19T00:47:06;2.90;;;2.90;;
6693;SDS011;3384;42.628;23.380;2023-11-19T00:49:34;2.93;;;2.83;;
6693;SDS011;3384;42.628;23.380;2023-11-19T00:52:01;3.50;;;3.20;;
6693;SDS011;3384;42.628;23.380;2023-11-19T00:54:28;3.00;;;3.00;;
6693;SDS011;3384;42.628;23.380;2023-11-19T00:56:55;2.97;;;2.97;;
6693;SDS011;3384;42.628;23.380;2023-11-19T00:59:22;3.30;;;3.20;;
6693;SDS011;3384;42.628;23.380;2023-11-19T01:01:49;2.47;;;2.47;;
6693;SDS011;3384;42.628;23.380;2023-11-19T01:04:16;2.53;;;2.53;;
6693;SDS011;3384;42.628;23.380;2023-11-19T01:06:44;2.60;;;2.60;;
6693;SDS011;3384;42.628;23.380;2023-11-19T01:09:11;2.10;;;2.10;;
6693;SDS011;3384;42.628;23.380;2023-11-19T01:11:38;2.70;;;2.60;;
6693;SDS011;3384;42.628;23.380;2023-11-19T01:14:05;2.90;;;2.90;;
6693;SDS011;3384;42.628;23.380;2023-11-19T01:16:31;2.37;;;2.37;;
6693;SDS011;3384;42.628;23.380;2023-11-19T01:18:58;2.40;;;2.37;;
6693;SDS011;3384;42.628;23.380;2023-11-19T01:21:29;2.60;;;2.60;;
6693;SDS011;3384;42.628;23.380;2023-11-19T01:23:58;2.90;;;2.73;;
6693;SDS011;3384;42.628;23.380;2023-11-19T01:26:25;2.30;;;2.30;;
6693;SDS011;3384;42.628;23.380;2023-11-19T01:28:52;3.17;;;2.97;;
6693;SDS011;3384;42.628;23.380;2023-11-19T01:31:19;2.70;;;2.70;;
6693;SDS011;3384;42.628;23.380;2023-11-19T01:33:46;2.53;;;2.43;;
6693;SDS011;3384;42.628;23.380;2023-11-19T01:36:13;2.57;;;2.40;;
6693;SDS011;3384;42.628;23.380;2023-11-19T01:38:40;2.27;;;2.27;;
6693;SDS011;3384;42.628;23.380;2023-11-19T01:41:08;2.97;;;2.97;;
6693;SDS011;3384;42.628;23.380;2023-11-19T01:43:35;3.20;;;3.20;;
6693;SDS011;3384;42.628;23.380;2023-11-19T01:46:04;2.30;;;2.30;;
6693;SDS011;3384;42.628;23.380;2023-11-19T01:48:32;2.50;;;2.50;;
6693;SDS011;3384;42.628;23.380;2023-11-19T01:51:01;2.30;;;2.30;;
6693;SDS011;3384;42.628;23.380;2023-11-19T01:53:29;2.80;;;2.70;;
6693;SDS011;3384;42.628;23.380;2023-11-19T01:55:57;2.87;;;2.80;;
6693;SDS011;3384;42.628;23.380;2023-11-19T01:58:25;2.80;;;2.80;;
6693;SDS011;3384;42.628;23.380;2023-11-19T02:00:55;3.00;;;2.90;;
6693;SDS011;3384;42.628;23.380;2023-11-19T02:03:23;2.43;;;2.43;;
6693;SDS011;3384;42.628;23.380;2023-11-19T02:05:53;2.23;;;2.23;;
6693;SDS011;3384;42.628;23.380;2023-11-19T02:08:19;2.33;;;2.33;;
6693;SDS011;3384;42.628;23.380;2023-11-19T02:10:46;2.90;;;2.90;;
6693;SDS011;3384;42.628;23.380;2023-11-19T02:13:13;2.60;;;2.60;;
6693;SDS011;3384;42.628;23.380;2023-11-19T02:15:42;2.03;;;2.03;;
6693;SDS011;3384;42.628;23.380;2023-11-19T02:18:19;2.90;;;2.90;;
6693;SDS011;3384;42.628;23.380;2023-11-19T02:20:46;2.87;;;2.67;;
6693;SDS011;3384;42.628;23.380;2023-11-19T02:23:14;2.20;;;2.10;;
6693;SDS011;3384;42.628;23.380;2023-11-19T02:25:42;3.20;;;3.10;;
6693;SDS011;3384;42.628;23.380;2023-11-19T02:28:13;2.67;;;2.67;;
6693;SDS011;3384;42.628;23.380;2023-11-19T02:30:41;2.77;;;2.77;;
6693;SDS011;3384;42.628;23.380;2023-11-19T02:33:08;2.33;;;2.33;;
6693;SDS011;3384;42.628;23.380;2023-11-19T02:35:35;3.13;;;3.13;;
6693;SDS011;3384;42.628;23.380;2023-11-19T02:38:02;2.77;;;2.77;;
6693;SDS011;3384;42.628;23.380;2023-11-19T02:40:32;2.03;;;2.00;;
6693;SDS011;3384;42.628;23.380;2023-11-19T02:42:58;2.70;;;2.70;;
6693;SDS011;3384;42.628;23.380;2023-11-19T02:45:27;3.13;;;2.50;;
6693;SDS011;3384;42.628;23.380;2023-11-19T02:47:56;2.90;;;2.90;;
6693;SDS011;3384;42.628;23.380;2023-11-19T02:50:23;2.77;;;2.77;;
6693;SDS011;3384;42.628;23.380;2023-11-19T02:52:51;2.73;;;2.73;;
6693;SDS011;3384;42.628;23.380;2023-11-19T02:55:19;3.33;;;3.33;;
6693;SDS011;3384;42.628;23.380;2023-11-19T02:57:46;2.30;;;2.30;;
6693;SDS011;3384;42.628;23.380;2023-11-19T03:00:14;3.70;;;3.60;;
6693;SDS011;3384;42.628;23.380;2023-11-19T03:02:43;3.30;;;3.20;;
6693;SDS011;3384;42.628;23.380;2023-11-19T03:05:12;2.97;;;2.97;;
6693;SDS011;3384;42.628;23.380;2023-11-19T03:07:40;2.30;;;2.30;;
6693;SDS011;3384;42.628;23.380;2023-11-19T03:10:09;3.20;;;3.10;;
6693;SDS011;3384;42.628;23.380;2023-11-19T03:12:38;3.10;;;3.10;;
6693;SDS011;3384;42.628;23.380;2023-11-19T03:15:06;3.30;;;3.20;;
6693;SDS011;3384;42.628;23.380;2023-11-19T03:17:32;2.80;;;2.70;;
6693;SDS011;3384;42.628;23.380;2023-11-19T03:20:01;3.73;;;3.23;;
6693;SDS011;3384;42.628;23.380;2023-11-19T03:22:28;2.70;;;2.70;;
6693;SDS011;3384;42.628;23.380;2023-11-19T03:24:55;2.90;;;2.90;;
6693;SDS011;3384;42.628;23.380;2023-11-19T03:27:22;3.20;;;3.20;;
6693;SDS011;3384;42.628;23.380;2023-11-19T03:29:49;2.47;;;2.43;;
6693;SDS011;3384;42.628;23.380;2023-11-19T03:32:16;3.60;;;3.50;;
6693;SDS011;3384;42.628;23.380;2023-11-19T03:34:43;2.83;;;2.83;;
6693;SDS011;3384;42.628;23.380;2023-11-19T03:37:11;3.17;;;3.17;;
6693;SDS011;3384;42.628;23.380;2023-11-19T03:39:41;2.60;;;2.60;;
6693;SDS011;3384;42.628;23.380;2023-11-19T03:42:08;2.80;;;2.80;;
6693;SDS011;3384;42.628;23.380;2023-11-19T03:44:36;3.67;;;3.33;;
6693;SDS011;3384;42.628;23.380;2023-11-19T03:47:03;2.33;;;2.33;;
6693;SDS011;3384;42.628;23.380;2023-11-19T03:49:31;3.20;;;3.20;;
6693;SDS011;3384;42.628;23.380;2023-11-19T03:51:58;3.03;;;3.03;;
6693;SDS011;3384;42.628;23.380;2023-11-19T03:54:26;3.07;;;3.07;;
6693;SDS011;3384;42.628;23.380;2023-11-19T03:56:53;2.60;;;2.60;;
6693;SDS011;3384;42.628;23.380;2023-11-19T03:59:20;2.90;;;2.80;;
6693;SDS011;3384;42.628;23.380;2023-11-19T04:01:46;2.50;;;2.43;;
6693;SDS011;3384;42.628;23.380;2023-11-19T04:04:13;3.40;;;3.30;;
6693;SDS011;3384;42.628;23.380;2023-11-19T04:06:40;3.40;;;3.30;;
6693;SDS011;3384;42.628;23.380;2023-11-19T04:09:07;3.60;;;3.50;;
6693;SDS011;3384;42.628;23.380;2023-11-19T04:11:36;2.60;;;2.60;;
6693;SDS011;3384;42.628;23.380;2023-11-19T04:14:05;2.50;;;2.50;;
6693;SDS011;3384;42.628;23.380;2023-11-19T04:16:32;2.70;;;2.70;;
6693;SDS011;3384;42.628;23.380;2023-11-19T04:18:58;2.90;;;2.80;;
6693;SDS011;3384;42.628;23.380;2023-11-19T04:21:25;2.80;;;2.70;;
6693;SDS011;3384;42.628;23.380;2023-11-19T04:23:52;2.50;;;2.50;;
6693;SDS011;3384;42.628;23.380;2023-11-19T04:26:19;3.33;;;3.10;;
6693;SDS011;3384;42.628;23.380;2023-11-19T04:28:48;3.97;;;3.87;;
6693;SDS011;3384;42.628;23.380;2023-11-19T04:31:15;3.07;;;3.07;;
6693;SDS011;3384;42.628;23.380;2023-11-19T04:33:42;2.33;;;2.33;;
6693;SDS011;3384;42.628;23.380;2023-11-19T04:36:09;3.17;;;3.10;;
6693;SDS011;3384;42.628;23.380;2023-11-19T04:38:36;3.40;;;3.30;;
6693;SDS011;3384;42.628;23.380;2023-11-19T04:41:05;2.90;;;2.90;;
6693;SDS011;3384;42.628;23.380;2023-11-19T04:43:32;2.40;;;2.40;;
6693;SDS011;3384;42.628;23.380;2023-11-19T04:46:00;2.90;;;2.83;;
6693;SDS011;3384;42.628;23.380;2023-11-19T04:48:30;32.13;;;4.10;;
6693;SDS011;3384;42.628;23.380;2023-11-19T04:50:59;2.77;;;2.77;;
6693;SDS011;3384;42.628;23.380;2023-11-19T04:53:26;2.87;;;2.87;;
6693;SDS011;3384;42.628;23.380;2023-11-19T04:55:52;2.67;;;2.67;;
6693;SDS011;3384;42.628;23.380;2023-11-19T04:58:19;3.57;;;3.57;;
6693;SDS011;3384;42.628;23.380;2023-11-19T05:00:46;3.50;;;3.50;;
6693;SDS011;3384;42.628;23.380;2023-11-19T05:03:14;3.23;;;2.90;;
6693;SDS011;3384;42.628;23.380;2023-11-19T05:05:41;2.97;;;2.90;;
6693;SDS011;3384;42.628;23.380;2023-11-19T05:08:08;2.97;;;2.97;;
6693;SDS011;3384;42.628;23.380;2023-11-19T05:10:35;3.53;;;3.53;;
6693;SDS011;3384;42.628;23.380;2023-11-19T05:13:02;3.27;;;3.17;;
6693;SDS011;3384;42.628;23.380;2023-11-19T05:15:29;3.10;;;3.10;;
6693;SDS011;3384;42.628;23.380;2023-11-19T05:17:56;3.23;;;3.23;;
6693;SDS011;3384;42.628;23.380;2023-11-19T05:20:27;3.20;;;3.20;;
6693;SDS011;3384;42.628;23.380;2023-11-19T05:22:54;3.60;;;3.33;;
6693;SDS011;3384;42.628;23.380;2023-11-19T05:25:20;3.13;;;3.13;;
6693;SDS011;3384;42.628;23.380;2023-11-19T05:27:47;3.90;;;3.80;;
6693;SDS011;3384;42.628;23.380;2023-11-19T05:30:14;3.33;;;3.33;;
6693;SDS011;3384;42.628;23.380;2023-11-19T05:32:41;3.97;;;3.87;;
6693;SDS011;3384;42.628;23.380;2023-11-19T05:35:08;3.07;;;3.07;;
6693;SDS011;3384;42.628;23.380;2023-11-19T05:37:36;2.63;;;2.53;;
6693;SDS011;3384;42.628;23.380;2023-11-19T05:40:04;3.53;;;3.43;;
6693;SDS011;3384;42.628;23.380;2023-11-19T05:42:39;3.83;;;3.83;;
6693;SDS011;3384;42.628;23.380;2023-11-19T05:45:06;3.10;;;3.10;;
6693;SDS011;3384;42.628;23.380;2023-11-19T05:47:34;3.63;;;3.60;;
6693;SDS011;3384;42.628;23.380;2023-11-19T05:50:01;3.60;;;3.50;;
6693;SDS011;3384;42.628;23.380;2023-11-19T05:52:29;3.20;;;3.20;;
6693;SDS011;3384;42.628;23.380;2023-11-19T05:55:00;2.47;;;2.40;;
6693;SDS011;3384;42.628;23.380;2023-11-19T05:57:29;2.77;;;2.77;;
6693;SDS011;3384;42.628;23.380;2023-11-19T05:59:56;2.67;;;2.67;;
6693;SDS011;3384;42.628;23.380;2023-11-19T06:02:24;2.97;;;2.97;;
6693;SDS011;3384;42.628;23.380;2023-11-19T06:04:52;2.63;;;2.63;;
6693;SDS011;3384;42.628;23.380;2023-11-19T06:07:19;2.33;;;2.33;;
6693;SDS011;3384;42.628;23.380;2023-11-19T06:09:46;3.03;;;3.03;;
6693;SDS011;3384;42.628;23.380;2023-11-19T06:12:14;3.10;;;3.10;;
6693;SDS011;3384;42.628;23.380;2023-11-19T06:14:41;3.30;;;3.30;;
6693;SDS011;3384;42.628;23.380;2023-11-19T06:17:08;3.33;;;3.23;;
6693;SDS011;3384;42.628;23.380;2023-11-19T06:19:36;3.13;;;3.13;;
6693;SDS011;3384;42.628;23.380;2023-11-19T06:22:03;3.50;;;3.50;;
6693;SDS011;3384;42.628;23.380;2023-11-19T06:24:30;3.50;;;3.40;;
6693;SDS011;3384;42.628;23.380;2023-11-19T06:26:57;3.30;;;3.30;;
6693;SDS011;3384;42.628;23.380;2023-11-19T06:29:26;4.20;;;4.10;;
6693;SDS011;3384;42.628;23.380;2023-11-19T06:31:53;4.70;;;3.60;;
6693;SDS011;3384;42.628;23.380;2023-11-19T06:34:20;3.67;;;3.67;;
6693;SDS011;3384;42.628;23.380;2023-11-19T06:36:46;3.27;;;3.27;;
6693;SDS011;3384;42.628;23.380;2023-11-19T06:39:13;3.33;;;3.23;;
6693;SDS011;3384;42.628;23.380;2023-11-19T06:41:44;4.37;;;4.27;;
6693;SDS011;3384;42.628;23.380;2023-11-19T06:44:11;3.43;;;3.33;;
6693;SDS011;3384;42.628;23.380;2023-11-19T06:46:40;2.83;;;2.83;;
6693;SDS011;3384;42.628;23.380;2023-11-19T06:49:07;3.00;;;3.00;;
6693;SDS011;3384;42.628;23.380;2023-11-19T06:51:34;3.37;;;3.37;;
6693;SDS011;3384;42.628;23.380;2023-11-19T06:54:01;4.20;;;4.10;;
6693;SDS011;3384;42.628;23.380;2023-11-19T06:56:27;2.80;;;2.80;;
6693;SDS011;3384;42.628;23.380;2023-11-19T06:58:54;3.50;;;3.40;;
6693;SDS011;3384;42.628;23.380;2023-11-19T07:01:21;3.83;;;3.73;;
6693;SDS011;3384;42.628;23.380;2023-11-19T07:03:49;3.13;;;3.13;;
6693;SDS011;3384;42.628;23.380;2023-11-19T07:06:17;3.30;;;3.20;;
6693;SDS011;3384;42.628;23.380;2023-11-19T07:08:44;4.13;;;4.03;;
6693;SDS011;3384;42.628;23.380;2023-11-19T07:11:11;3.93;;;3.87;;
6693;SDS011;3384;42.628;23.380;2023-11-19T07:13:39;3.63;;;3.60;;
6693;SDS011;3384;42.628;23.380;2023-11-19T07:16:07;3.50;;;3.40;;
6693;SDS011;3384;42.628;23.380;2023-11-19T07:18:35;3.60;;;3.50;;
6693;SDS011;3384;42.628;23.380;2023-11-19T07:21:03;3.30;;;3.30;;
6693;SDS011;3384;42.628;23.380;2023-11-19T07:23:31;4.03;;;3.93;;
6693;SDS011;3384;42.628;23.380;2023-11-19T07:25:58;9.40;;;8.70;;
6693;SDS011;3384;42.628;23.380;2023-11-19T07:28:25;4.03;;;4.00;;
6693;SDS011;3384;42.628;23.380;2023-11-19T07:30:53;3.87;;;3.77;;
6693;SDS011;3384;42.628;23.380;2023-11-19T07:33:22;4.63;;;4.53;;
6693;SDS011;3384;42.628;23.380;2023-11-19T07:35:48;4.50;;;4.40;;
6693;SDS011;3384;42.628;23.380;2023-11-19T07:38:17;4.00;;;3.60;;
6693;SDS011;3384;42.628;23.380;2023-11-19T07:40:44;3.40;;;3.30;;
6693;SDS011;3384;42.628;23.380;2023-11-19T07:43:12;4.10;;;4.00;;
6693;SDS011;3384;42.628;23.380;2023-11-19T07:45:49;4.17;;;4.07;;
6693;SDS011;3384;42.628;23.380;2023-11-19T07:48:16;4.83;;;4.40;;
6693;SDS011;3384;42.628;23.380;2023-11-19T07:50:47;4.27;;;4.17;;
6693;SDS011;3384;42.628;23.380;2023-11-19T07:53:15;4.07;;;3.97;;
6693;SDS011;3384;42.628;23.380;2023-11-19T07:55:44;4.07;;;3.87;;
6693;SDS011;3384;42.628;23.380;2023-11-19T07:58:10;4.40;;;4.30;;
6693;SDS011;3384;42.628;23.380;2023-11-19T08:00:38;3.83;;;3.73;;
6693;SDS011;3384;42.628;23.380;2023-11-19T08:03:05;4.13;;;4.03;;
6693;SDS011;3384;42.628;23.380;2023-11-19T08:05:32;4.70;;;4.60;;
6693;SDS011;3384;42.628;23.380;2023-11-19T08:07:59;4.67;;;4.57;;
6693;SDS011;3384;42.628;23.380;2023-11-19T08:10:27;4.30;;;4.23;;
6693;SDS011;3384;42.628;23.380;2023-11-19T08:12:55;4.50;;;4.40;;
6693;SDS011;3384;42.628;23.380;2023-11-19T08:15:23;4.63;;;4.53;;
6693;SDS011;3384;42.628;23.380;2023-11-19T08:17:50;3.60;;;3.50;;
6693;SDS011;3384;42.628;23.380;2023-11-19T08:20:17;3.87;;;3.77;;
6693;SDS011;3384;42.628;23.380;2023-11-19T08:22:44;3.90;;;3.80;;
6693;SDS011;3384;42.628;23.380;2023-11-19T08:25:11;4.97;;;4.87;;
6693;SDS011;3384;42.628;23.380;2023-11-19T08:27:38;3.67;;;3.67;;
6693;SDS011;3384;42.628;23.380;2023-11-19T08:30:07;4.33;;;4.23;;
6693;SDS011;3384;42.628;23.380;2023-11-19T08:32:34;4.67;;;4.57;;
6693;SDS011;3384;42.628;23.380;2023-11-19T08:35:01;5.00;;;4.90;;
6693;SDS011;3384;42.628;23.380;2023-11-19T08:37:29;4.20;;;4.10;;
6693;SDS011;3384;42.628;23.380;2023-11-19T08:39:56;5.17;;;5.07;;
6693;SDS011;3384;42.628;23.380;2023-11-19T08:42:23;5.40;;;5.30;;
6693;SDS011;3384;42.628;23.380;2023-11-19T08:44:50;4.53;;;4.43;;
6693;SDS011;3384;42.628;23.380;2023-11-19T08:47:20;4.53;;;4.43;;
6693;SDS011;3384;42.628;23.380;2023-11-19T08:49:47;4.47;;;4.37;;
6693;SDS011;3384;42.628;23.380;2023-11-19T08:55:36;4.00;;;4.00;;
6693;SDS011;3384;42.628;23.380;2023-11-19T08:58:03;3.90;;;3.80;;
6693;SDS011;3384;42.628;23.380;2023-11-19T09:00:30;4.47;;;4.37;;
6693;SDS011;3384;42.628;23.380;2023-11-19T09:02:59;4.00;;;3.97;;
6693;SDS011;3384;42.628;23.380;2023-11-19T09:05:26;3.40;;;3.40;;
6693;SDS011;3384;42.628;23.380;2023-11-19T09:07:52;4.53;;;4.43;;
6693;SDS011;3384;42.628;23.380;2023-11-19T09:10:19;4.83;;;4.73;;
6693;SDS011;3384;42.628;23.380;2023-11-19T09:12:46;4.20;;;4.10;;
6693;SDS011;3384;42.628;23.380;2023-11-19T09:15:13;4.63;;;4.50;;
6693;SDS011;3384;42.628;23.380;2023-11-19T09:17:40;3.30;;;3.30;;
6693;SDS011;3384;42.628;23.380;2023-11-19T09:20:09;4.73;;;4.63;;
6693;SDS011;3384;42.628;23.380;2023-11-19T09:22:40;5.13;;;5.03;;
6693;SDS011;3384;42.628;23.380;2023-11-19T09:25:07;5.60;;;5.10;;
6693;SDS011;3384;42.628;23.380;2023-11-19T09:27:34;5.40;;;5.30;;
6693;SDS011;3384;42.628;23.380;2023-11-19T09:30:01;4.90;;;4.80;;
6693;SDS011;3384;42.628;23.380;2023-11-19T09:32:29;4.57;;;4.47;;
6693;SDS011;3384;42.628;23.380;2023-11-19T09:34:56;4.37;;;4.37;;
6693;SDS011;3384;42.628;23.380;2023-11-19T09:37:24;5.57;;;5.47;;
6693;SDS011;3384;42.628;23.380;2023-11-19T09:39:51;5.00;;;4.90;;
6693;SDS011;3384;42.628;23.380;2023-11-19T09:42:18;4.43;;;4.33;;
6693;SDS011;3384;42.628;23.380;2023-11-19T09:44:45;5.07;;;4.97;;
6693;SDS011;3384;42.628;23.380;2023-11-19T09:47:14;5.13;;;5.03;;
6693;SDS011;3384;42.628;23.380;2023-11-19T09:49:44;4.63;;;4.53;;
6693;SDS011;3384;42.628;23.380;2023-11-19T09:52:11;4.50;;;4.40;;
6693;SDS011;3384;42.628;23.380;2023-11-19T09:54:39;4.67;;;4.60;;
6693;SDS011;3384;42.628;23.380;2023-11-19T09:57:06;7.23;;;4.57;;
6693;SDS011;3384;42.628;23.380;2023-11-19T09:59:35;5.60;;;5.50;;
6693;SDS011;3384;42.628;23.380;2023-11-19T10:02:03;5.97;;;5.87;;
6693;SDS011;3384;42.628;23.380;2023-11-19T10:04:30;4.57;;;4.53;;
6693;SDS011;3384;42.628;23.380;2023-11-19T10:07:01;4.90;;;4.80;;
6693;SDS011;3384;42.628;23.380;2023-11-19T10:09:29;5.30;;;5.07;;
6693;SDS011;3384;42.628;23.380;2023-11-19T10:11:57;5.33;;;5.13;;
6693;SDS011;3384;42.628;23.380;2023-11-19T10:14:24;4.80;;;4.70;;
6693;SDS011;3384;42.628;23.380;2023-11-19T10:16:51;4.50;;;4.40;;
6693;SDS011;3384;42.628;23.380;2023-11-19T10:19:20;5.30;;;5.20;;
6693;SDS011;3384;42.628;23.380;2023-11-19T10:21:48;5.10;;;5.00;;
6693;SDS011;3384;42.628;23.380;2023-11-19T10:24:15;5.50;;;5.40;;
6693;SDS011;3384;42.628;23.380;2023-11-19T10:26:42;5.03;;;4.93;;
6693;SDS011;3384;42.628;23.380;2023-11-19T10:29:10;5.17;;;5.07;;
6693;SDS011;3384;42.628;23.380;2023-11-19T10:31:39;4.90;;;4.80;;
6693;SDS011;3384;42.628;23.380;2023-11-19T10:34:10;3.23;;;3.23;;
6693;SDS011;3384;42.628;23.380;2023-11-19T10:36:51;4.80;;;4.70;;
6693;SDS011;3384;42.628;23.380;2023-11-19T10:39:18;5.10;;;5.00;;
6693;SDS011;3384;42.628;23.380;2023-11-19T10:41:46;3.60;;;3.60;;
6693;SDS011;3384;42.628;23.380;2023-11-19T10:44:23;3.70;;;3.70;;
6693;SDS011;3384;42.628;23.380;2023-11-19T10:46:58;4.97;;;4.87;;
6693;SDS011;3384;42.628;23.380;2023-11-19T10:49:25;4.50;;;4.40;;
6693;SDS011;3384;42.628;23.380;2023-11-19T10:51:52;4.17;;;4.17;;
6693;SDS011;3384;42.628;23.380;2023-11-19T10:54:22;4.30;;;4.27;;
6693;SDS011;3384;42.628;23.380;2023-11-19T10:56:51;4.30;;;4.20;;
6693;SDS011;3384;42.628;23.380;2023-11-19T10:59:25;4.60;;;4.50;;
6693;SDS011;3384;42.628;23.380;2023-11-19T11:01:56;4.57;;;4.57;;
6693;SDS011;3384;42.628;23.380;2023-11-19T11:04:23;4.77;;;4.67;;
6693;SDS011;3384;42.628;23.380;2023-11-19T11:06:52;6.20;;;5.97;;
6693;SDS011;3384;42.628;23.380;2023-11-19T11:09:21;4.43;;;4.43;;
6693;SDS011;3384;42.628;23.380;2023-11-19T11:11:48;4.83;;;4.73;;
6693;SDS011;3384;42.628;23.380;2023-11-19T11:14:17;4.73;;;4.63;;
6693;SDS011;3384;42.628;23.380;2023-11-19T11:16:48;4.97;;;4.87;;
6693;SDS011;3384;42.628;23.380;2023-11-19T11:19:15;4.80;;;4.80;;
6693;SDS011;3384;42.628;23.380;2023-11-19T11:21:43;4.90;;;4.80;;
6693;SDS011;3384;42.628;23.380;2023-11-19T11:24:25;5.20;;;5.10;;
6693;SDS011;3384;42.628;23.380;2023-11-19T11:27:11;5.20;;;5.10;;
6693;SDS011;3384;42.628;23.380;2023-11-19T11:29:58;4.60;;;4.60;;
6693;SDS011;3384;42.628;23.380;2023-11-19T11:32:34;5.47;;;5.37;;
6693;SDS011;3384;42.628;23.380;2023-11-19T11:35:17;4.87;;;4.77;;
6693;SDS011;3384;42.628;23.380;2023-11-19T11:38:00;4.60;;;4.60;;
6693;SDS011;3384;42.628;23.380;2023-11-19T11:40:29;4.80;;;4.80;;
6693;SDS011;3384;42.628;23.380;2023-11-19T11:42:56;5.40;;;5.30;;
6693;SDS011;3384;42.628;23.380;2023-11-19T11:48:12;4.90;;;4.80;;
6693;SDS011;3384;42.628;23.380;2023-11-19T11:50:51;5.40;;;5.30;;
6693;SDS011;3384;42.628;23.380;2023-11-19T11:53:20;5.33;;;5.17;;
6693;SDS011;3384;42.628;23.380;2023-11-19T11:55:55;5.67;;;5.57;;
6693;SDS011;3384;42.628;23.380;2023-11-19T11:58:31;5.50;;;5.40;;
6693;SDS011;3384;42.628;23.380;2023-11-19T12:00:59;5.93;;;5.83;;
6693;SDS011;3384;42.628;23.380;2023-11-19T12:03:30;5.93;;;5.73;;
6693;SDS011;3384;42.628;23.380;2023-11-19T12:05:58;6.60;;;6.40;;
6693;SDS011;3384;42.628;23.380;2023-11-19T12:08:25;5.33;;;4.90;;
6693;SDS011;3384;42.628;23.380;2023-11-19T12:10:55;5.67;;;5.57;;
6693;SDS011;3384;42.628;23.380;2023-11-19T12:13:42;5.40;;;5.30;;
6693;SDS011;3384;42.628;23.380;2023-11-19T12:16:14;6.27;;;6.10;;
6693;SDS011;3384;42.628;23.380;2023-11-19T12:18:45;5.87;;;5.77;;
6693;SDS011;3384;42.628;23.380;2023-11-19T12:21:27;6.27;;;6.17;;
6693;SDS011;3384;42.628;23.380;2023-11-19T12:23:58;6.00;;;5.90;;
6693;SDS011;3384;42.628;23.380;2023-11-19T12:26:38;5.87;;;5.77;;
6693;SDS011;3384;42.628;23.380;2023-11-19T12:29:06;5.80;;;5.70;;
6693;SDS011;3384;42.628;23.380;2023-11-19T12:31:34;6.20;;;6.10;;
6693;SDS011;3384;42.628;23.380;2023-11-19T12:34:08;6.40;;;6.30;;
6693;SDS011;3384;42.628;23.380;2023-11-19T12:36:39;6.50;;;6.40;;
6693;SDS011;3384;42.628;23.380;2023-11-19T12:39:08;6.07;;;5.87;;
6693;SDS011;3384;42.628;23.380;2023-11-19T12:41:50;7.00;;;6.90;;
6693;SDS011;3384;42.628;23.380;2023-11-19T12:44:20;6.43;;;6.23;;
6693;SDS011;3384;42.628;23.380;2023-11-19T12:46:58;5.97;;;5.63;;
6693;SDS011;3384;42.628;23.380;2023-11-19T12:49:27;5.60;;;5.50;;
6693;SDS011;3384;42.628;23.380;2023-11-19T12:51:54;6.47;;;6.17;;
6693;SDS011;3384;42.628;23.380;2023-11-19T12:54:31;7.07;;;6.67;;
6693;SDS011;3384;42.628;23.380;2023-11-19T12:56:59;6.73;;;6.63;;
6693;SDS011;3384;42.628;23.380;2023-11-19T12:59:25;5.63;;;5.53;;
6693;SDS011;3384;42.628;23.380;2023-11-19T13:01:53;6.27;;;6.17;;
6693;SDS011;3384;42.628;23.380;2023-11-19T13:04:21;6.20;;;5.90;;
6693;SDS011;3384;42.628;23.380;2023-11-19T13:06:50;5.33;;;5.13;;
6693;SDS011;3384;42.628;23.380;2023-11-19T13:09:21;5.30;;;5.20;;
6693;SDS011;3384;42.628;23.380;2023-11-19T13:11:49;6.17;;;6.07;;
6693;SDS011;3384;42.628;23.380;2023-11-19T13:14:17;5.83;;;5.67;;
6693;SDS011;3384;42.628;23.380;2023-11-19T13:16:44;6.50;;;6.30;;
6693;SDS011;3384;42.628;23.380;2023-11-19T13:19:11;5.83;;;5.73;;
6693;SDS011;3384;42.628;23.380;2023-11-19T13:25:01;5.80;;;5.63;;
6693;SDS011;3384;42.628;23.380;2023-11-19T13:27:30;6.33;;;6.23;;
6693;SDS011;3384;42.628;23.380;2023-11-19T13:29:57;7.03;;;6.93;;
6693;SDS011;3384;42.628;23.380;2023-11-19T13:32:24;6.40;;;6.30;;
6693;SDS011;3384;42.628;23.380;2023-11-19T13:34:51;6.30;;;6.20;;
6693;SDS011;3384;42.628;23.380;2023-11-19T13:37:18;6.37;;;6.20;;
6693;SDS011;3384;42.628;23.380;2023-11-19T13:39:45;6.97;;;6.67;;
6693;SDS011;3384;42.628;23.380;2023-11-19T13:42:13;7.03;;;6.83;;
6693;SDS011;3384;42.628;23.380;2023-11-19T13:44:47;7.00;;;6.80;;
6693;SDS011;3384;42.628;23.380;2023-11-19T13:47:14;7.03;;;6.83;;
6693;SDS011;3384;42.628;23.380;2023-11-19T13:49:41;7.10;;;6.90;;
6693;SDS011;3384;42.628;23.380;2023-11-19T13:52:08;6.00;;;5.90;;
6693;SDS011;3384;42.628;23.380;2023-11-19T13:54:36;6.83;;;6.73;;
6693;SDS011;3384;42.628;23.380;2023-11-19T13:57:03;6.93;;;6.73;;
6693;SDS011;3384;42.628;23.380;2023-11-19T13:59:32;7.30;;;7.20;;
6693;SDS011;3384;42.628;23.380;2023-11-19T14:01:59;6.83;;;6.63;;
6693;SDS011;3384;42.628;23.380;2023-11-19T14:04:25;7.60;;;6.60;;
6693;SDS011;3384;42.628;23.380;2023-11-19T14:06:52;7.03;;;6.93;;
6693;SDS011;3384;42.628;23.380;2023-11-19T14:09:20;7.07;;;6.90;;
6693;SDS011;3384;42.628;23.380;2023-11-19T14:11:47;7.90;;;7.60;;
6693;SDS011;3384;42.628;23.380;2023-11-19T14:14:16;7.87;;;7.77;;
6693;SDS011;3384;42.628;23.380;2023-11-19T14:16:44;6.90;;;6.80;;
6693;SDS011;3384;42.628;23.380;2023-11-19T14:19:11;7.47;;;7.37;;
6693;SDS011;3384;42.628;23.380;2023-11-19T14:21:39;7.93;;;7.60;;
6693;SDS011;3384;42.628;23.380;2023-11-19T14:24:06;8.03;;;7.83;;
6693;SDS011;3384;42.628;23.380;2023-11-19T14:26:33;8.77;;;8.43;;
6693;SDS011;3384;42.628;23.380;2023-11-19T14:29:00;8.10;;;8.00;;
6693;SDS011;3384;42.628;23.380;2023-11-19T14:31:27;9.30;;;8.67;;
6693;SDS011;3384;42.628;23.380;2023-11-19T14:33:55;8.07;;;7.97;;
6693;SDS011;3384;42.628;23.380;2023-11-19T14:36:22;8.77;;;8.33;;
6693;SDS011;3384;42.628;23.380;2023-11-19T14:38:49;7.90;;;7.77;;
6693;SDS011;3384;42.628;23.380;2023-11-19T14:41:16;9.77;;;9.00;;
6693;SDS011;3384;42.628;23.380;2023-11-19T14:43:43;9.37;;;9.07;;
6693;SDS011;3384;42.628;23.380;2023-11-19T14:46:09;7.93;;;7.63;;
6693;SDS011;3384;42.628;23.380;2023-11-19T14:48:36;7.80;;;7.60;;
6693;SDS011;3384;42.628;23.380;2023-11-19T14:51:05;8.47;;;8.30;;
6693;SDS011;3384;42.628;23.380;2023-11-19T14:53:32;8.47;;;8.27;;
6693;SDS011;3384;42.628;23.380;2023-11-19T14:55:59;8.63;;;8.27;;
6693;SDS011;3384;42.628;23.380;2023-11-19T14:58:41;8.53;;;8.20;;
6693;SDS011;3384;42.628;23.380;2023-11-19T15:01:11;7.87;;;7.67;;
6693;SDS011;3384;42.628;23.380;2023-11-19T15:03:38;9.03;;;8.33;;
6693;SDS011;3384;42.628;23.380;2023-11-19T15:06:07;7.57;;;7.40;;
6693;SDS011;3384;42.628;23.380;2023-11-19T15:08:34;6.80;;;6.70;;
6693;SDS011;3384;42.628;23.380;2023-11-19T15:11:01;7.57;;;7.23;;
6693;SDS011;3384;42.628;23.380;2023-11-19T15:13:30;8.13;;;7.93;;
6693;SDS011;3384;42.628;23.380;2023-11-19T15:15:57;8.63;;;8.40;;